Time;durP1;ratioP1;P1;durP2;ratioP2;P2;SDS_P1;SDS_P2;PMS_P1;PMS_P2;Temp;Humidity;BMP_temperature;BMP_pressure;BME280_temperature;BME280_humidity;BME280_pressure;Samples;Min_cycle;Max_cycle;Signal;HPM_P1;HPM_P2
2022/12/25 00:00:09;;;;;;;;;20.00;16.75;;;;;12.08;89.00;101155.75;5038716;28;45457;-86
2022/12/25 00:02:35;;;;;;;;;13.75;11.25;;;;;12.09;88.95;101157.47;5038383;28;47280;-86
2022/12/25 00:05:00;;;;;;;;;14.75;7.75;;;;;12.13;88.98;101151.25;5056510;28;45377;-85
2022/12/25 00:07:25;;;;;;;;;13.00;8.25;;;;;12.17;88.80;101150.25;5037679;28;65521;-85
2022/12/25 00:09:51;;;;;;;;;13.25;11.75;;;;;12.18;88.56;101144.16;5038240;28;49841;-86
2022/12/25 00:12:18;;;;;;;;;23.75;20.25;;;;;12.18;88.78;101144.16;5038387;28;47096;-86
2022/12/25 00:14:43;;;;;;;;;44.50;34.75;;;;;12.22;88.75;101138.84;5038580;28;45906;-85
2022/12/25 00:17:09;;;;;;;;;20.75;12.00;;;;;12.22;88.28;101142.31;5056079;28;45353;-86
2022/12/25 00:19:34;;;;;;;;;6.00;4.00;;;;;12.21;88.29;101143.22;5038392;28;45444;-86
2022/12/25 00:21:59;;;;;;;;;11.75;8.50;;;;;12.19;88.31;101140.63;5037594;28;62861;-85
2022/12/25 00:24:25;;;;;;;;;11.50;6.50;;;;;12.18;88.38;101143.28;5055425;28;45423;-85
2022/12/25 00:26:50;;;;;;;;;8.00;5.00;;;;;12.16;88.24;101142.47;5038374;28;45293;-86
2022/12/25 00:29:15;;;;;;;;;8.50;7.50;;;;;12.14;88.26;101136.44;5038229;28;45351;-86
2022/12/25 00:31:41;;;;;;;;;5.25;4.00;;;;;12.12;88.08;101133.88;5037693;28;53781;-86
2022/12/25 00:34:06;;;;;;;;;6.75;6.00;;;;;12.09;88.04;101138.31;5055418;28;64014;-85
2022/12/25 00:36:31;;;;;;;;;5.00;3.50;;;;;12.08;88.30;101129.66;5055542;28;58705;-86
2022/12/25 00:38:57;;;;;;;;;8.25;6.00;;;;;12.12;88.16;101135.63;5056362;28;45388;-86
2022/12/25 00:44:09;;;;;;;;;9.75;8.50;;;;;12.14;88.21;101133.84;5040855;28;45746;-86
2022/12/25 00:46:35;;;;;;;;;7.50;4.00;;;;;12.13;88.06;101139.97;5055985;28;45727;-86
2022/12/25 00:49:01;;;;;;;;;5.50;3.25;;;;;12.14;88.46;101136.44;5038227;28;45343;-86
2022/12/25 00:51:26;;;;;;;;;4.00;4.00;;;;;12.16;88.18;101129.44;5054381;28;46151;-86
2022/12/25 00:53:51;;;;;;;;;10.75;6.25;;;;;12.12;88.06;101123.44;5050769;28;45325;-86
2022/12/25 00:56:17;;;;;;;;;7.00;6.00;;;;;12.12;88.32;101110.41;5037260;28;62790;-86
2022/12/25 00:58:42;;;;;;;;;12.75;6.00;;;;;12.11;88.03;101115.66;5056033;28;45466;-86
2022/12/25 01:01:09;;;;;;;;;5.25;4.50;;;;;12.10;88.04;101117.41;5021190;28;47420;-86
2022/12/25 01:03:35;;;;;;;;;10.50;8.00;;;;;12.08;87.99;101102.72;5038004;28;45721;-86
2022/12/25 01:06:03;;;;;;;;;6.00;3.00;;;;;12.07;88.01;101096.66;5037045;28;61327;-86
2022/12/25 01:08:30;;;;;;;;;32.75;20.25;;;;;12.05;87.73;101100.19;5055716;28;45267;-86
2022/12/25 01:11:00;;;;;;;;;6.00;3.75;;;;;12.05;88.14;101108.84;5037723;28;45518;-86
2022/12/25 01:13:26;;;;;;;;;6.75;2.00;;;;;12.03;87.85;101117.63;5037252;28;46045;-86
2022/12/25 01:15:53;;;;;;;;;12.00;7.75;;;;;12.07;88.20;101129.69;5037719;28;45394;-86
2022/12/25 01:18:19;;;;;;;;;5.25;2.50;;;;;12.06;87.72;101128.84;5037842;28;45425;-86
2022/12/25 01:20:45;;;;;;;;;3.75;2.75;;;;;12.05;87.82;101116.69;5055246;28;46743;-86
2022/12/25 01:23:10;;;;;;;;;3.75;2.75;;;;;12.09;88.01;101115.72;5020161;28;64294;-86
2022/12/25 01:25:36;;;;;;;;;12.25;7.00;;;;;12.11;87.74;101116.53;5037662;28;45295;-86
2022/12/25 01:28:01;;;;;;;;;9.50;4.00;;;;;12.15;87.67;101120.75;5054572;28;58953;-86
2022/12/25 01:30:26;;;;;;;;;4.00;2.00;;;;;12.19;87.86;101124.13;5037068;28;61610;-85
2022/12/25 01:32:52;;;;;;;;;3.00;2.75;;;;;12.22;87.62;101126.66;5055380;28;47911;-86
2022/12/25 01:35:17;;;;;;;;;4.00;1.75;;;;;12.25;87.56;101128.31;5055538;28;49654;-86
2022/12/25 01:37:42;;;;;;;;;4.00;2.25;;;;;12.26;87.46;101137.84;5059060;28;45379;-86
2022/12/25 01:40:08;;;;;;;;;4.50;4.50;;;;;12.28;87.64;101143.88;5023437;28;67486;-87
2022/12/25 01:42:33;;;;;;;;;7.50;3.75;;;;;12.30;87.80;101129.03;5040550;28;45390;-86
2022/12/25 01:45:36;;;;;;;;;7.00;3.75;;;;;12.35;87.67;101132.34;5053652;28;45429;-86
2022/12/25 01:48:05;;;;;;;;;15.25;6.25;;;;;12.40;87.78;101131.31;5029981;28;45439;-86
2022/12/25 01:50:32;;;;;;;;;6.50;6.00;;;;;12.43;87.66;101129.53;5037572;28;46062;-87
2022/12/25 01:52:57;;;;;;;;;8.00;7.00;;;;;12.43;87.63;101129.53;5032060;28;45612;-86
2022/12/25 01:55:23;;;;;;;;;13.00;8.50;;;;;12.43;87.48;101122.53;5040210;28;45418;-86
2022/12/25 01:57:48;;;;;;;;;6.25;2.25;;;;;12.42;87.11;101128.66;5040475;28;45471;-86
2022/12/25 02:00:15;;;;;;;;;7.75;7.00;;;;;12.40;87.54;101122.63;5058314;28;45349;-87
2022/12/25 02:02:41;;;;;;;;;8.75;7.00;;;;;12.39;87.33;101119.16;5058648;28;45248;-87
2022/12/25 02:05:22;;;;;;;;;2.50;2.00;;;;;12.38;87.30;101119.22;5040748;28;45360;-86
2022/12/25 02:07:49;;;;;;;;;2.75;2.75;;;;;12.35;87.07;101114.06;5040709;28;45515;-86
2022/12/25 02:10:15;;;;;;;;;2.00;1.25;;;;;12.35;87.40;101108.84;5040368;28;45602;-87
2022/12/25 02:12:40;;;;;;;;;2.00;1.00;;;;;12.35;87.13;101109.72;5058041;28;45485;-87
2022/12/25 02:15:13;;;;;;;;;2.00;1.00;;;;;12.36;87.29;101114.03;5040612;28;45620;-86
2022/12/25 02:17:44;;;;;;;;;3.00;2.00;;;;;12.39;87.41;101115.72;5040294;28;45456;-86
2022/12/25 02:20:22;;;;;;;;;3.00;3.00;;;;;12.40;87.56;101088.69;5058021;28;45552;-86
2022/12/25 02:23:00;;;;;;;;;4.00;2.00;;;;;12.44;87.41;101081.63;5040091;28;46084;-86
2022/12/25 02:25:44;;;;;;;;;13.00;11.50;;;;;12.44;87.37;101079.00;5058391;28;45297;-86
2022/12/25 02:28:15;;;;;;;;;5.50;3.75;;;;;12.42;87.50;101080.81;5023537;28;45352;-87
2022/12/25 02:30:50;;;;;;;;;3.00;2.00;;;;;12.38;86.82;101095.72;5057926;28;45701;-86
2022/12/25 02:36:10;;;;;;;;;3.75;3.00;;;;;12.34;87.30;101092.34;5042813;28;45357;-86
2022/12/25 02:39:56;;;;;;;;;5.00;5.00;;;;;12.35;87.51;101086.22;5039997;28;45495;-86
2022/12/25 02:41:34;;;;;;;;;3.75;3.00;;;;;12.39;87.42;101085.22;5042542;28;46064;-86
2022/12/25 03:11:53;;;;;;;;;3.75;3.75;;;;;12.25;87.86;101069.13;5022563;28;45315;-86
2022/12/25 03:17:02;;;;;;;;;2.25;1.00;;;;;12.21;88.19;101062.28;5036273;28;45739;-86
2022/12/25 03:27:57;;;;;;;;;5.50;4.50;;;;;12.24;88.27;101046.56;5022197;28;45783;-87
2022/12/25 03:33:24;;;;;;;;;12.50;5.50;;;;;12.27;88.50;101046.44;5022049;28;45326;-86
2022/12/25 03:36:13;;;;;;;;;7.75;2.25;;;;;12.26;87.94;101046.47;5019203;28;46500;-86
2022/12/25 04:36:51;;;;;;;;;7.50;5.50;;;;;12.47;87.94;100964.03;4974267;28;45453;-86
2022/12/25 04:39:17;;;;;;;;;7.00;5.00;;;;;12.50;88.21;100963.91;4957699;28;61933;-86
2022/12/25 04:41:42;;;;;;;;;10.00;7.25;;;;;12.51;88.21;100965.63;4957375;28;60965;-86
2022/12/25 04:44:08;;;;;;;;;8.25;7.50;;;;;12.53;88.24;100976.88;4974086;28;51205;-86
2022/12/25 04:46:33;;;;;;;;;8.00;5.25;;;;;12.56;88.32;100979.41;4971109;28;45407;-86
2022/12/25 04:48:58;;;;;;;;;15.25;8.00;;;;;12.56;88.26;100982.00;4970469;28;63732;-86
2022/12/25 04:51:24;;;;;;;;;9.75;8.00;;;;;12.57;88.07;100992.41;4972771;28;62819;-86
2022/12/25 04:53:51;;;;;;;;;11.25;8.75;;;;;12.57;88.10;100992.41;4973897;28;45786;-86
2022/12/25 04:56:17;;;;;;;;;7.50;6.75;;;;;12.55;88.26;100988.97;4974465;28;45360;-86
2022/12/25 04:58:43;;;;;;;;;11.50;8.00;;;;;12.54;88.39;100984.66;4973997;28;49756;-86
2022/12/25 05:01:08;;;;;;;;;9.00;9.00;;;;;12.56;88.42;100989.84;4974218;28;46155;-86
2022/12/25 05:03:34;;;;;;;;;13.50;8.00;;;;;12.55;88.53;100969.84;4974260;28;45403;-86
2022/12/25 05:06:00;;;;;;;;;13.00;8.00;;;;;12.57;88.29;100966.28;4973671;28;45452;-86
2022/12/25 05:08:27;;;;;;;;;12.25;7.50;;;;;12.56;88.28;100938.47;4974173;28;45470;-86
2022/12/25 05:10:53;;;;;;;;;13.25;9.50;;;;;12.57;88.38;100901.00;4960314;28;48292;-86
2022/12/25 05:13:18;;;;;;;;;7.00;4.50;;;;;12.57;88.22;100882.75;5011520;28;71818;-86
2022/12/25 05:15:43;;;;;;;;;12.50;7.00;;;;;12.57;88.48;100879.25;5023837;28;60909;-86
2022/12/25 05:18:09;;;;;;;;;11.50;7.00;;;;;12.55;88.42;100896.72;5042192;28;45477;-85
2022/12/25 05:20:35;;;;;;;;;13.00;8.00;;;;;12.53;88.74;100895.94;5041414;28;63028;-86
2022/12/25 05:23:00;;;;;;;;;14.25;8.25;;;;;12.51;88.82;100911.66;5024239;28;45246;-85
2022/12/25 05:25:26;;;;;;;;;16.75;11.50;;;;;12.48;88.98;100917.00;5023277;28;67683;-86
2022/12/25 05:27:51;;;;;;;;;12.00;9.00;;;;;12.46;89.03;100916.19;5007538;28;48502;-86
2022/12/25 05:30:16;;;;;;;;;19.25;10.25;;;;;12.49;88.97;100928.28;5041420;28;57729;-86
2022/12/25 05:32:42;;;;;;;;;13.00;11.75;;;;;12.48;89.20;100937.00;5040764;28;45393;-86
2022/12/25 05:35:07;;;;;;;;;13.50;10.25;;;;;12.43;89.03;100926.75;5023779;28;45298;-86
2022/12/25 05:37:34;;;;;;;;;11.75;11.50;;;;;12.44;89.00;100904.94;5024031;28;45560;-86
2022/12/25 05:39:59;;;;;;;;;13.25;11.25;;;;;12.46;89.35;100903.16;5041852;28;46355;-86
2022/12/25 05:42:25;;;;;;;;;13.00;9.25;;;;;12.47;88.98;100937.94;5021652;28;53129;-85
2022/12/25 05:44:50;;;;;;;;;12.50;11.75;;;;;12.46;89.33;100938.81;5027720;28;45432;-86
2022/12/25 05:47:15;;;;;;;;;10.50;7.00;;;;;12.45;89.26;100929.31;5061700;28;53298;-86
2022/12/25 05:49:41;;;;;;;;;13.25;10.25;;;;;12.47;89.33;100920.50;5061460;28;46575;-86
2022/12/25 05:52:06;;;;;;;;;16.75;11.50;;;;;12.49;89.45;100912.63;5043868;28;45411;-85
2022/12/25 05:54:33;;;;;;;;;14.00;9.25;;;;;12.48;89.27;100916.13;5022324;28;58627;-85
2022/12/25 05:56:58;;;;;;;;;12.25;9.25;;;;;12.47;89.35;100910.06;5043940;28;45479;-86
2022/12/25 05:59:24;;;;;;;;;15.00;8.75;;;;;12.47;89.45;100912.66;5061382;28;51916;-85
2022/12/25 06:01:49;;;;;;;;;18.75;11.75;;;;;12.46;89.33;100915.31;5061680;28;45405;-85
2022/12/25 06:04:15;;;;;;;;;13.00;10.50;;;;;12.44;89.52;100915.38;5043573;28;45334;-86
2022/12/25 06:06:40;;;;;;;;;13.75;9.50;;;;;12.44;89.91;100910.16;5061713;28;45506;-85
2022/12/25 06:09:05;;;;;;;;;13.00;8.75;;;;;12.43;89.47;100912.84;5061045;28;59133;-85
2022/12/25 06:11:31;;;;;;;;;14.25;9.00;;;;;12.43;89.85;100907.63;5043073;28;59185;-86
2022/12/25 06:13:56;;;;;;;;;13.25;10.00;;;;;12.42;89.42;100901.53;5061914;28;45380;-85
2022/12/25 06:16:22;;;;;;;;;11.75;9.00;;;;;12.40;89.80;100895.50;5061565;28;45353;-85
2022/12/25 06:18:48;;;;;;;;;13.75;7.00;;;;;12.36;89.96;100888.69;5042915;28;54819;-85
2022/12/25 06:21:15;;;;;;;;;9.75;8.00;;;;;12.37;90.15;100890.41;5061570;28;45361;-85
2022/12/25 06:23:41;;;;;;;;;12.25;8.00;;;;;12.39;89.65;100893.81;5057334;28;45325;-85
2022/12/25 06:26:11;;;;;;;;;12.25;9.25;;;;;12.40;90.05;100903.34;5058363;28;45396;-86
2022/12/25 06:28:36;;;;;;;;;13.75;8.25;;;;;12.40;89.86;100900.72;5023663;28;48317;-86
2022/12/25 06:31:13;;;;;;;;;12.50;8.50;;;;;12.39;89.78;100888.59;5057702;28;54834;-86
2022/12/25 06:33:39;;;;;;;;;7.50;6.25;;;;;12.39;89.70;100878.16;5023248;28;45527;-86
2022/12/25 06:36:10;;;;;;;;;9.50;9.00;;;;;12.40;89.98;100869.41;5040136;28;45577;-85
2022/12/25 06:38:36;;;;;;;;;12.50;8.75;;;;;12.42;89.66;100859.75;5039854;28;46604;-86
2022/12/25 06:41:04;;;;;;;;;9.25;8.50;;;;;12.42;89.64;100853.69;5056088;28;45399;-86
2022/12/25 06:43:29;;;;;;;;;12.50;9.00;;;;;12.41;89.94;100839.78;5050013;28;45473;-86
2022/12/25 06:45:54;;;;;;;;;13.00;8.50;;;;;12.40;89.69;100832.84;5039696;28;45405;-86
2022/12/25 06:48:20;;;;;;;;;11.75;7.50;;;;;12.38;89.61;100843.34;5056673;28;68190;-86
2022/12/25 06:50:45;;;;;;;;;17.75;11.25;;;;;12.34;89.77;100864.41;5039425;28;53466;-86
2022/12/25 06:53:10;;;;;;;;;15.75;11.00;;;;;12.31;89.90;100864.50;5038995;28;67666;-86
2022/12/25 06:55:36;;;;;;;;;8.75;6.25;;;;;12.30;90.28;100875.84;5055364;28;45379;-86
2022/12/25 06:58:01;;;;;;;;;10.75;8.25;;;;;12.30;90.29;100878.47;5039236;28;56536;-85
2022/12/25 07:00:26;;;;;;;;;12.75;9.00;;;;;12.31;90.28;100888.84;5039463;28;50157;-85
2022/12/25 07:02:52;;;;;;;;;13.00;12.00;;;;;12.32;90.18;100894.91;5022863;28;45440;-86
2022/12/25 07:05:17;;;;;;;;;11.75;10.75;;;;;12.29;90.14;100901.06;5039499;28;45490;-86
2022/12/25 07:07:42;;;;;;;;;8.25;8.00;;;;;12.26;90.30;100900.31;5039645;28;45472;-85
2022/12/25 07:10:08;;;;;;;;;22.75;13.25;;;;;12.27;90.28;100892.44;5057492;28;45321;-86
2022/12/25 07:12:33;;;;;;;;;13.25;11.25;;;;;12.28;90.47;100885.50;5039517;28;45332;-86
2022/12/25 07:14:59;;;;;;;;;11.25;8.75;;;;;12.27;90.43;100881.16;5039308;28;48317;-85
2022/12/25 07:17:24;;;;;;;;;13.50;9.75;;;;;12.29;90.53;100867.16;5039028;28;47602;-86
2022/12/25 07:19:49;;;;;;;;;17.50;9.50;;;;;12.32;90.36;100853.16;5039331;28;46929;-86
2022/12/25 07:22:15;;;;;;;;;12.75;8.75;;;;;12.33;90.46;100834.84;5039467;28;45384;-86
2022/12/25 07:24:40;;;;;;;;;13.50;12.00;;;;;12.35;90.35;100826.94;5057345;28;45290;-86
2022/12/25 07:27:07;;;;;;;;;14.00;8.25;;;;;12.34;90.16;100815.66;5057399;28;46623;-86
2022/12/25 07:29:32;;;;;;;;;16.75;9.75;;;;;12.33;90.09;100813.97;5057314;28;45788;-86
2022/12/25 07:31:58;;;;;;;;;12.00;9.00;;;;;12.31;90.13;100812.28;5057012;28;45348;-86
2022/12/25 07:34:23;;;;;;;;;16.50;8.75;;;;;12.27;89.88;100800.25;5038705;28;49086;-86
2022/12/25 07:36:48;;;;;;;;;12.75;9.25;;;;;12.19;90.01;100793.53;5038968;28;46089;-86
2022/12/25 07:39:15;;;;;;;;;13.75;8.75;;;;;12.17;89.99;100790.13;5038982;28;45432;-87
2022/12/25 07:41:41;;;;;;;;;14.75;9.50;;;;;12.15;90.24;100776.28;5037224;28;45450;-86
2022/12/25 07:44:06;;;;;;;;;11.75;9.00;;;;;12.14;90.32;100768.50;5039046;28;45476;-86
2022/12/25 07:46:31;;;;;;;;;0.00;0.00;;;;;12.11;90.54;100772.09;5038532;28;45507;-86
2022/12/25 07:48:56;;;;;;;;;14.75;8.75;;;;;12.12;90.44;100788.59;5038660;28;51612;-86
2022/12/25 07:51:22;;;;;;;;;12.75;10.50;;;;;12.11;90.43;100789.47;5038672;28;49408;-86
2022/12/25 07:53:48;;;;;;;;;13.50;9.00;;;;;12.10;90.44;100811.28;5038811;28;45622;-86
2022/12/25 07:56:18;;;;;;;;;14.00;9.00;;;;;12.08;90.47;100836.56;5049678;28;45266;-86
2022/12/25 07:58:44;;;;;;;;;8.50;8.25;;;;;12.07;90.32;100829.63;5038776;28;45808;-85
2022/12/25 08:01:11;;;;;;;;;16.50;8.00;;;;;12.07;90.37;100825.28;5038569;28;45473;-86
2022/12/25 08:03:36;;;;;;;;;12.00;9.00;;;;;12.10;90.56;100826.94;5056856;28;45596;-86
2022/12/25 08:06:04;;;;;;;;;7.75;7.00;;;;;12.10;90.18;100840.81;5056449;28;47704;-86
2022/12/25 08:08:30;;;;;;;;;13.75;7.00;;;;;12.08;90.54;100844.41;5038463;28;45408;-85
2022/12/25 08:10:55;;;;;;;;;12.00;7.25;;;;;12.07;90.30;100851.38;5056651;28;45296;-86
2022/12/25 08:13:20;;;;;;;;;7.75;6.25;;;;;12.07;90.16;100846.16;5021355;28;58440;-85
2022/12/25 08:15:46;;;;;;;;;7.00;3.75;;;;;12.09;90.25;100853.91;5037648;28;57989;-85
2022/12/25 08:18:11;;;;;;;;;9.00;7.00;;;;;12.09;89.92;100843.47;5038022;28;56479;-85
2022/12/25 08:20:36;;;;;;;;;7.00;5.50;;;;;12.09;89.59;100840.88;5056269;28;51993;-85
2022/12/25 08:23:03;;;;;;;;;8.00;8.00;;;;;12.07;89.43;100834.84;5038301;28;47154;-85
2022/12/25 08:25:28;;;;;;;;;8.50;6.50;;;;;12.09;89.75;100828.69;5038502;28;46468;-86
2022/12/25 08:27:53;;;;;;;;;9.75;6.25;;;;;12.10;89.70;100817.34;5038743;28;45448;-86
2022/12/25 08:30:19;;;;;;;;;3.00;3.00;;;;;12.09;89.53;100822.59;5021899;28;45337;-86
2022/12/25 08:32:44;;;;;;;;;10.50;8.75;;;;;12.09;89.38;100812.16;5056236;28;45423;-86
2022/12/25 08:35:09;;;;;;;;;12.25;7.00;;;;;12.08;89.57;100807.88;5056193;28;45293;-85
2022/12/25 08:37:35;;;;;;;;;11.75;7.00;;;;;12.09;89.41;100817.38;5038386;28;45306;-86
2022/12/25 08:40:00;;;;;;;;;9.00;6.25;;;;;12.12;89.41;100819.91;5038858;28;45471;-86
2022/12/25 08:42:26;;;;;;;;;7.75;6.00;;;;;12.13;89.45;100812.03;5054139;28;45291;-86
2022/12/25 08:44:51;;;;;;;;;8.50;5.00;;;;;12.14;89.38;100792.84;5036942;28;47177;-85
2022/12/25 08:47:17;;;;;;;;;5.00;4.00;;;;;12.14;89.58;100795.44;5055706;28;45376;-85
2022/12/25 08:49:42;;;;;;;;;9.00;7.00;;;;;12.13;89.40;100793.75;5048630;28;65381;-86
2022/12/25 08:52:07;;;;;;;;;10.25;7.00;;;;;12.12;89.34;100784.22;5053287;28;45267;-85
2022/12/25 08:54:35;;;;;;;;;10.75;6.00;;;;;12.13;89.03;100808.56;5055279;28;60824;-86
2022/12/25 08:57:01;;;;;;;;;13.75;8.00;;;;;12.12;89.23;100812.91;5032754;28;45553;-86
2022/12/25 08:59:26;;;;;;;;;6.25;5.50;;;;;12.11;89.06;100805.13;5054438;28;45365;-85
2022/12/25 09:01:54;;;;;;;;;9.25;6.25;;;;;12.10;89.17;100804.28;5037729;28;62194;-86
2022/12/25 09:04:20;;;;;;;;;6.50;6.25;;;;;12.10;89.00;100801.69;5020259;28;47221;-86
2022/12/25 09:06:45;;;;;;;;;12.00;6.25;;;;;12.09;88.78;100797.38;5055971;28;46042;-86
2022/12/25 09:09:11;;;;;;;;;5.50;5.00;;;;;12.04;88.78;100791.47;5055688;28;54498;-85
2022/12/25 09:11:36;;;;;;;;;5.50;5.50;;;;;12.00;88.62;100816.81;5055931;28;45402;-86
2022/12/25 09:14:02;;;;;;;;;8.50;6.00;;;;;12.03;88.98;100825.44;5036644;28;65695;-86
2022/12/25 09:16:27;;;;;;;;;7.00;6.00;;;;;12.02;88.85;100819.38;5021093;28;45418;-86
2022/12/25 09:18:55;;;;;;;;;12.00;7.00;;;;;12.00;88.55;100811.59;5037245;28;52605;-86
2022/12/25 09:21:20;;;;;;;;;12.25;7.25;;;;;11.96;88.36;100810.00;5055720;28;45215;-86
2022/12/25 09:23:46;;;;;;;;;8.25;6.00;;;;;11.97;88.99;100813.44;5054884;28;66428;-86
2022/12/25 09:26:13;;;;;;;;;7.75;6.00;;;;;11.95;88.71;100823.09;5036919;28;45387;-85
2022/12/25 09:28:38;;;;;;;;;6.75;6.75;;;;;11.95;88.75;100825.69;5037656;28;45433;-86
2022/12/25 09:31:04;;;;;;;;;8.00;6.00;;;;;11.93;88.99;100828.34;5055113;28;54583;-85
2022/12/25 09:33:30;;;;;;;;;6.75;6.25;;;;;11.96;88.45;100838.69;5055393;28;46080;-86
2022/12/25 09:36:00;;;;;;;;;7.50;6.00;;;;;11.99;88.61;100843.78;5020733;28;45422;-86
2022/12/25 09:38:26;;;;;;;;;11.00;7.25;;;;;12.00;88.37;100839.44;5055692;28;45289;-86
2022/12/25 09:41:11;;;;;;;;;9.25;4.50;;;;;12.03;88.34;100825.44;5054624;28;45583;-86
2022/12/25 09:43:41;;;;;;;;;7.00;6.25;;;;;12.05;88.19;100816.63;5030174;28;48188;-86
2022/12/25 09:46:14;;;;;;;;;7.00;4.00;;;;;12.09;88.03;100826.09;5037059;28;45934;-86
2022/12/25 09:48:42;;;;;;;;;6.75;3.75;;;;;12.09;87.95;100809.56;5037426;28;45370;-86
2022/12/25 09:51:14;;;;;;;;;7.75;3.75;;;;;12.09;87.91;100830.44;5037379;28;45349;-86
2022/12/25 09:53:47;;;;;;;;;7.00;6.50;;;;;12.10;87.58;100829.53;5037117;28;48161;-86
2022/12/25 09:56:18;;;;;;;;;6.25;4.00;;;;;12.11;87.60;100821.66;5019678;28;45695;-86
2022/12/25 09:58:44;;;;;;;;;10.75;6.00;;;;;12.14;87.75;100831.13;5051683;28;45360;-86
2022/12/25 10:01:28;;;;;;;;;7.75;5.50;;;;;12.15;87.45;100820.66;5024123;28;45267;-86
2022/12/25 10:04:06;;;;;;;;;12.50;6.75;;;;;12.20;87.76;100833.53;5040502;28;45454;-86
2022/12/25 10:07:08;;;;;;;;;6.25;6.00;;;;;12.26;87.60;100814.19;5058556;28;45375;-86
2022/12/25 10:09:59;;;;;;;;;6.75;6.00;;;;;12.30;87.20;100813.22;4925123;28;45414;-85
2022/12/25 10:13:09;;;;;;;;;12.75;6.25;;;;;12.37;87.11;100825.16;4899683;28;45415;-86
2022/12/25 10:15:59;;;;;;;;;7.50;4.50;;;;;12.39;86.78;100816.34;4861633;29;45542;-86
2022/12/25 10:18:46;;;;;;;;;8.25;4.00;;;;;12.47;86.96;100808.22;4861634;29;45446;-86
2022/12/25 10:21:13;;;;;;;;;6.00;6.00;;;;;12.54;87.05;100812.34;4862152;29;45423;-85
2022/12/25 10:23:43;;;;;;;;;6.50;4.25;;;;;12.54;86.53;100819.31;4861953;29;45520;-86
2022/12/25 10:26:20;;;;;;;;;5.00;5.00;;;;;12.57;86.84;100812.22;4861177;29;45747;-86
2022/12/25 10:28:54;;;;;;;;;4.50;4.00;;;;;12.64;86.56;100817.22;4861618;28;45497;-85
2022/12/25 10:31:22;;;;;;;;;4.50;4.50;;;;;12.64;85.93;100799.78;4861805;29;45476;-86
2022/12/25 10:33:49;;;;;;;;;5.75;4.00;;;;;12.65;86.40;100806.72;4861845;29;45446;-86
2022/12/25 10:36:17;;;;;;;;;9.00;4.00;;;;;12.67;85.62;100807.53;4861421;29;46474;-86
2022/12/25 10:38:43;;;;;;;;;8.25;5.50;;;;;12.71;85.88;100806.50;4861254;29;45421;-86
2022/12/25 10:41:26;;;;;;;;;6.00;5.25;;;;;12.72;85.12;100805.59;4860011;29;45553;-86
2022/12/25 10:43:54;;;;;;;;;7.75;6.25;;;;;12.74;85.39;100802.91;4861494;29;45528;-86
2022/12/25 10:46:21;;;;;;;;;8.25;4.50;;;;;12.83;85.40;100799.09;4867154;29;45489;-86
2022/12/25 10:48:49;;;;;;;;;5.00;4.00;;;;;12.91;85.59;100799.69;4909027;28;45827;-85
2022/12/25 10:51:31;;;;;;;;;4.00;4.00;;;;;13.01;85.48;100797.56;4991931;28;45282;-85
2022/12/25 10:53:57;;;;;;;;;3.00;3.00;;;;;13.04;84.20;100794.81;5037170;28;45368;-85
2022/12/25 10:56:22;;;;;;;;;5.00;4.00;;;;;13.05;84.37;100802.63;5037550;28;46477;-85
2022/12/25 10:58:48;;;;;;;;;3.25;3.00;;;;;13.05;84.28;100797.38;5032005;28;55280;-86
2022/12/25 11:01:13;;;;;;;;;5.50;3.00;;;;;13.04;84.02;100800.94;5037675;28;45522;-86
2022/12/25 11:03:42;;;;;;;;;7.50;5.25;;;;;13.00;83.64;100801.09;5019202;28;58561;-86
2022/12/25 11:06:22;;;;;;;;;7.25;5.25;;;;;12.95;83.71;100814.34;5019454;28;45587;-86
2022/12/25 11:08:51;;;;;;;;;4.50;4.00;;;;;12.93;83.07;100803.94;5018591;28;45749;-86
2022/12/25 11:11:18;;;;;;;;;6.00;3.25;;;;;12.97;83.83;100804.69;5019812;28;45421;-86
2022/12/25 11:13:50;;;;;;;;;3.00;3.00;;;;;13.01;83.59;100787.13;5020235;28;45394;-86
2022/12/25 11:16:28;;;;;;;;;7.25;4.00;;;;;13.02;83.51;100786.19;5037610;28;45713;-85
2022/12/25 11:18:54;;;;;;;;;5.00;2.75;;;;;13.05;83.02;100791.31;5019681;28;45709;-86
2022/12/25 11:21:29;;;;;;;;;4.00;3.00;;;;;13.04;82.06;100800.06;5019577;28;45357;-85
2022/12/25 11:24:00;;;;;;;;;6.00;4.00;;;;;13.03;82.75;100800.97;5037128;28;45533;-86
2022/12/25 11:26:26;;;;;;;;;2.50;2.50;;;;;13.02;82.27;100814.94;5019255;28;45436;-86
2022/12/25 11:28:53;;;;;;;;;7.25;3.50;;;;;13.00;81.63;100827.22;5037057;28;45328;-85
2022/12/25 11:31:26;;;;;;;;;4.00;3.00;;;;;12.99;81.71;100836.81;5019476;28;45425;-86
2022/12/25 11:34:13;;;;;;;;;3.25;2.00;;;;;12.95;81.29;100837.84;5019144;28;45616;-85
2022/12/25 11:36:47;;;;;;;;;3.00;3.00;;;;;12.93;81.45;100824.00;5015432;28;45626;-87
2022/12/25 11:39:39;;;;;;;;;5.00;4.00;;;;;12.99;80.94;100823.75;5034909;28;45665;-85
2022/12/25 11:42:26;;;;;;;;;6.50;4.00;;;;;13.04;81.31;100818.34;5032593;28;45398;-86
2022/12/25 11:44:59;;;;;;;;;2.00;2.00;;;;;13.08;81.32;100812.13;5028778;28;45373;-86
2022/12/25 11:47:35;;;;;;;;;4.00;3.00;;;;;13.12;81.26;100817.16;5056320;28;46484;-86
2022/12/25 11:50:07;;;;;;;;;7.00;4.00;;;;;13.15;81.52;100808.38;5038805;28;45713;-86
2022/12/25 11:52:35;;;;;;;;;2.50;2.50;;;;;13.16;80.88;100810.88;5056693;28;45327;-86
2022/12/25 11:55:32;;;;;;;;;3.75;3.00;;;;;13.18;80.68;100803.00;5038780;28;45384;-86
2022/12/25 11:58:02;;;;;;;;;4.50;3.25;;;;;13.19;80.55;100804.72;5029170;28;47395;-86
2022/12/25 12:00:32;;;;;;;;;9.25;3.00;;;;;13.24;80.64;100802.78;5022130;28;45703;-86
2022/12/25 12:03:02;;;;;;;;;6.00;4.00;;;;;13.26;80.95;100795.72;5039293;28;45408;-85
2022/12/25 12:05:38;;;;;;;;;6.00;3.50;;;;;13.29;81.17;100795.59;5038704;28;45268;-86
2022/12/25 12:08:05;;;;;;;;;1.00;1.00;;;;;13.28;79.96;100793.91;5038532;28;47278;-86
2022/12/25 12:10:46;;;;;;;;;4.50;2.75;;;;;13.30;80.08;100771.19;5056489;28;45252;-86
2022/12/25 12:13:14;;;;;;;;;3.75;3.00;;;;;13.35;80.02;100786.69;5038786;28;45432;-86
2022/12/25 12:15:44;;;;;;;;;7.25;4.50;;;;;13.38;80.31;100799.66;5056586;28;45399;-86
2022/12/25 12:18:30;;;;;;;;;4.75;4.00;;;;;13.40;79.95;100789.13;5038498;28;45514;-85
2022/12/25 12:21:01;;;;;;;;;6.00;4.00;;;;;13.45;79.45;100779.34;5054905;28;45403;-85
2022/12/25 12:23:29;;;;;;;;;4.75;3.00;;;;;13.51;79.61;100772.09;5038511;28;45512;-85
2022/12/25 12:25:56;;;;;;;;;4.00;2.50;;;;;13.57;79.56;100780.59;5056268;28;45473;-84
2022/12/25 12:28:43;;;;;;;;;4.00;2.25;;;;;13.57;78.53;100750.06;5038452;28;46250;-84
2022/12/25 12:31:08;;;;;;;;;5.50;3.50;;;;;13.62;78.92;100760.34;5038300;28;45330;-85
2022/12/25 12:33:37;;;;;;;;;5.00;3.00;;;;;13.65;78.38;100757.59;5056303;28;45939;-85
2022/12/25 12:36:04;;;;;;;;;7.25;3.25;;;;;13.66;78.02;100764.53;5021182;28;45470;-84
2022/12/25 12:38:34;;;;;;;;;5.50;4.00;;;;;13.66;78.43;100775.00;5021566;28;47108;-85
2022/12/25 12:41:01;;;;;;;;;5.50;4.75;;;;;13.64;78.09;100787.28;5037962;28;46944;-85
2022/12/25 12:43:29;;;;;;;;;3.25;3.25;;;;;13.62;78.11;100781.28;5038400;28;45366;-85
2022/12/25 12:45:59;;;;;;;;;5.00;3.75;;;;;13.62;77.61;100779.50;5056567;28;45341;-84
2022/12/25 12:48:27;;;;;;;;;6.25;3.75;;;;;13.68;78.00;100762.69;5038210;28;46357;-85
2022/12/25 12:51:07;;;;;;;;;8.50;3.50;;;;;13.78;77.66;100750.06;5037643;28;45350;-85
2022/12/25 12:53:33;;;;;;;;;4.00;2.00;;;;;13.84;76.86;100742.84;5038112;28;45418;-85
2022/12/25 12:56:16;;;;;;;;;2.50;2.00;;;;;13.94;76.98;100753.75;5055959;28;45481;-84
2022/12/25 12:58:47;;;;;;;;;4.75;4.00;;;;;14.02;77.14;100753.41;5037768;28;46425;-85
2022/12/25 13:01:33;;;;;;;;;6.75;3.25;;;;;14.17;76.23;100775.47;5055784;28;45770;-84
2022/12/25 13:04:22;;;;;;;;;5.25;3.50;;;;;14.26;75.86;100764.59;5037569;28;45508;-85
2022/12/25 13:07:11;;;;;;;;;1.00;0.50;;;;;14.48;75.99;100746.16;5055940;28;45393;-85
2022/12/25 13:09:42;;;;;;;;;3.00;2.25;;;;;14.69;75.16;100747.84;5056110;28;45469;-83
2022/12/25 13:12:11;;;;;;;;;6.00;2.75;;;;;14.73;74.52;100732.84;5055794;28;45693;-85
2022/12/25 13:14:36;;;;;;;;;3.25;3.25;;;;;14.79;74.46;100736.94;5037695;28;45285;-85